createdAt,value
2018-09-14T00:00:42.187Z,17.50
2018-09-14T00:03:09.823Z,17.50
2018-09-14T00:05:37.432Z,17.50
2018-09-14T00:08:05.503Z,17.50
2018-09-14T00:10:33.222Z,17.60
2018-09-14T00:13:01.363Z,17.60
2018-09-14T00:15:29.727Z,17.70
2018-09-14T00:17:57.228Z,17.70
2018-09-14T00:20:25.199Z,17.80
2018-09-14T00:22:53.284Z,17.80
2018-09-14T00:25:20.799Z,17.70
2018-09-14T00:27:48.441Z,17.70
2018-09-14T00:30:17.205Z,17.60
2018-09-14T00:32:45.051Z,17.70
2018-09-14T00:35:12.951Z,17.70
2018-09-14T00:37:41.047Z,17.80
2018-09-14T00:40:08.567Z,17.80
2018-09-14T00:42:36.395Z,17.80
2018-09-14T00:45:04.311Z,17.80
2018-09-14T00:47:32.583Z,17.80
2018-09-14T00:50:00.671Z,17.70
2018-09-14T00:52:28.191Z,17.70
2018-09-14T00:54:56.039Z,17.70
2018-09-14T00:57:23.591Z,17.70
2018-09-14T00:59:51.379Z,17.70
2018-09-14T01:02:18.954Z,17.70
2018-09-14T01:04:47.114Z,17.70
2018-09-14T01:07:15.665Z,17.70
2018-09-14T01:09:43.186Z,17.70
2018-09-14T01:12:11.066Z,17.70
2018-09-14T01:14:38.573Z,17.70
2018-09-14T01:17:06.190Z,17.70
2018-09-14T01:19:33.703Z,17.70
2018-09-14T01:22:01.591Z,17.70
2018-09-14T01:24:29.098Z,17.60
2018-09-14T01:26:56.601Z,17.60
2018-09-14T01:29:24.567Z,17.60
2018-09-14T01:31:52.529Z,17.50
2018-09-14T01:34:20.343Z,17.50
2018-09-14T01:36:48.410Z,17.50
2018-09-14T01:39:16.097Z,17.50
2018-09-14T01:41:43.625Z,17.50
2018-09-14T01:44:11.169Z,17.50
2018-09-14T01:46:38.998Z,17.40
2018-09-14T01:49:07.226Z,17.40
2018-09-14T01:51:34.764Z,17.40
2018-09-14T01:54:02.302Z,17.40
2018-09-14T01:56:29.946Z,17.30
2018-09-14T01:58:57.485Z,17.30
2018-09-14T02:01:25.062Z,17.40
2018-09-14T02:03:52.591Z,17.30
2018-09-14T02:06:20.166Z,17.20
2018-09-14T02:08:47.976Z,17.20
2018-09-14T02:11:16.007Z,17.10
2018-09-14T02:13:43.516Z,17.10
2018-09-14T02:16:11.015Z,17.10
2018-09-14T02:18:38.594Z,17.00
2018-09-14T02:21:06.506Z,17.00
2018-09-14T02:23:34.028Z,17.00
2018-09-14T02:26:01.570Z,17.10
2018-09-14T02:28:29.687Z,17.10
2018-09-14T02:30:57.705Z,17.10
2018-09-14T02:33:25.778Z,17.20
2018-09-14T02:35:53.763Z,17.20
2018-09-14T02:38:21.238Z,17.20
2018-09-14T02:40:48.881Z,17.20
2018-09-14T02:43:16.395Z,17.20
2018-09-14T02:45:44.591Z,17.20
2018-09-14T02:48:12.751Z,17.20
2018-09-14T02:50:40.274Z,17.30
2018-09-14T02:53:07.803Z,17.30
2018-09-14T02:55:35.395Z,17.30
2018-09-14T02:58:02.908Z,17.20
2018-09-14T03:00:30.475Z,17.20
2018-09-14T03:02:57.988Z,17.20
2018-09-14T03:05:25.509Z,17.10
2018-09-14T03:07:53.943Z,17.10
2018-09-14T03:10:21.518Z,17.10
2018-09-14T03:12:49.591Z,17.20
2018-09-14T03:15:17.343Z,17.20
2018-09-14T03:17:44.827Z,17.30
2018-09-14T03:20:12.865Z,17.30
2018-09-14T03:22:40.391Z,17.30
2018-09-14T03:25:07.915Z,17.30
2018-09-14T03:27:35.441Z,17.20
2018-09-14T03:30:04.151Z,17.20
2018-09-14T03:32:32.204Z,17.20
2018-09-14T03:35:00.362Z,17.30
2018-09-14T03:37:27.897Z,17.30
2018-09-14T03:39:55.394Z,17.30
2018-09-14T03:42:24.145Z,17.30
2018-09-14T03:44:51.745Z,17.30
2018-09-14T03:47:19.247Z,17.40
2018-09-14T03:49:48.012Z,17.50
2018-09-14T03:52:15.555Z,17.40
2018-09-14T03:54:43.071Z,17.30
2018-09-14T03:57:10.711Z,17.30
2018-09-14T03:59:38.513Z,17.30
2018-09-14T04:02:06.791Z,17.30
2018-09-14T04:04:35.255Z,17.30
2018-09-14T04:07:03.536Z,17.30
2018-09-14T04:09:31.031Z,17.40
2018-09-14T04:11:59.223Z,17.40
2018-09-14T04:14:26.960Z,17.40
2018-09-14T04:16:54.776Z,17.40
2018-09-14T04:19:22.320Z,17.50
2018-09-14T04:21:50.751Z,17.50
2018-09-14T04:24:18.488Z,17.60
2018-09-14T04:26:46.919Z,17.60
2018-09-14T04:29:14.816Z,17.60
2018-09-14T04:31:42.809Z,17.50
2018-09-14T04:34:10.728Z,17.50
2018-09-14T04:36:38.291Z,17.50
2018-09-14T04:39:07.841Z,17.40
2018-09-14T04:41:35.794Z,17.40
2018-09-14T04:44:03.352Z,17.40
2018-09-14T04:46:30.872Z,17.30
2018-09-14T04:48:59.101Z,17.20
2018-09-14T04:51:26.657Z,17.20
2018-09-14T04:53:54.129Z,17.20
2018-09-14T04:56:21.679Z,17.20
2018-09-14T04:58:49.199Z,17.30
2018-09-14T05:01:16.821Z,17.40
2018-09-14T05:03:44.983Z,17.40
2018-09-14T05:06:12.495Z,17.50
2018-09-14T05:08:40.429Z,17.50
2018-09-14T05:11:08.271Z,17.50
2018-09-14T05:13:35.784Z,17.60
2018-09-14T05:16:04.371Z,17.50
2018-09-14T05:18:32.001Z,17.40
2018-09-14T05:20:59.575Z,17.50
2018-09-14T05:23:27.112Z,17.40
2018-09-14T05:25:55.332Z,17.30
2018-09-14T05:28:23.383Z,17.40
2018-09-14T05:30:51.521Z,17.40
2018-09-14T05:33:19.743Z,17.40
2018-09-14T05:35:47.321Z,17.40
2018-09-14T05:38:15.348Z,17.50
2018-09-14T05:40:42.912Z,17.50
2018-09-14T05:43:10.491Z,17.40
2018-09-14T05:45:38.035Z,17.50
2018-09-14T05:48:06.472Z,17.50
2018-09-14T05:50:33.963Z,17.50
2018-09-14T05:53:01.461Z,17.40
2018-09-14T05:55:29.011Z,17.50
2018-09-14T05:57:58.507Z,17.50
2018-09-14T06:00:26.896Z,17.50
2018-09-14T06:02:54.400Z,17.40
2018-09-14T06:05:21.938Z,17.40
2018-09-14T06:07:49.931Z,17.40
2018-09-14T06:10:18.008Z,17.30
2018-09-14T06:12:46.411Z,17.20
2018-09-14T06:15:13.923Z,17.10
2018-09-14T06:17:41.437Z,16.90
2018-09-14T06:20:09.315Z,16.90
2018-09-14T06:22:37.071Z,16.70
2018-09-14T06:25:06.235Z,16.70
2018-09-14T06:27:35.155Z,16.70
2018-09-14T06:30:02.982Z,16.60
2018-09-14T06:32:30.909Z,16.50
2018-09-14T06:34:59.309Z,16.50
2018-09-14T06:37:27.647Z,16.50
2018-09-14T06:39:55.197Z,16.50
2018-09-14T06:42:22.728Z,16.40
2018-09-14T06:44:50.512Z,16.30
2018-09-14T06:47:18.176Z,16.20
2018-09-14T06:49:46.259Z,16.20
2018-09-14T06:52:13.820Z,16.20
2018-09-14T06:54:41.348Z,16.10
2018-09-14T06:57:09.600Z,16.10
2018-09-14T06:59:37.106Z,16.00
2018-09-14T07:02:04.624Z,16.00
2018-09-14T07:04:32.178Z,16.00
2018-09-14T07:07:00.383Z,15.90
2018-09-14T07:09:28.480Z,15.90
2018-09-14T07:11:56.562Z,15.70
2018-09-14T07:14:24.156Z,15.70
2018-09-14T07:16:51.656Z,15.70
2018-09-14T07:19:19.299Z,15.80
2018-09-14T07:21:47.438Z,15.80
2018-09-14T07:24:15.037Z,15.80
2018-09-14T07:26:42.628Z,15.90
2018-09-14T07:29:10.899Z,15.90
2018-09-14T07:31:38.682Z,15.90
2018-09-14T07:34:06.699Z,16.00
2018-09-14T07:36:34.298Z,15.90
2018-09-14T07:39:01.803Z,16.00
2018-09-14T07:41:29.401Z,16.00
2018-09-14T07:43:57.025Z,16.00
2018-09-14T07:46:24.639Z,16.00
2018-09-14T07:48:52.760Z,16.00
2018-09-14T07:51:20.312Z,16.00
2018-09-14T07:53:47.959Z,16.00
2018-09-14T07:56:16.172Z,16.00
2018-09-14T07:58:43.674Z,16.10
2018-09-14T08:01:11.305Z,16.10
2018-09-14T08:03:38.859Z,16.10
2018-09-14T08:06:06.414Z,16.10
2018-09-14T08:08:34.817Z,16.20
2018-09-14T08:11:02.939Z,16.20
2018-09-14T08:13:30.459Z,16.20
2018-09-14T08:15:57.968Z,16.20
2018-09-14T08:18:26.219Z,16.20
2018-09-14T08:20:53.712Z,16.20
2018-09-14T08:23:21.219Z,16.20
2018-09-14T08:25:48.779Z,16.10
2018-09-14T08:28:16.293Z,16.20
2018-09-14T08:30:44.579Z,16.10
2018-09-14T08:33:12.435Z,16.20
2018-09-14T08:35:40.112Z,16.10
2018-09-14T08:38:07.641Z,16.10
2018-09-14T08:40:35.860Z,16.10
2018-09-14T08:43:03.544Z,16.20
2018-09-14T08:45:31.168Z,16.10
2018-09-14T08:47:59.804Z,16.20
2018-09-14T08:50:27.312Z,16.20
2018-09-14T08:52:55.267Z,16.20
2018-09-14T08:55:22.936Z,16.30
2018-09-14T08:57:50.443Z,16.20
2018-09-14T09:00:23.152Z,16.20
2018-09-14T09:02:51.408Z,16.20
2018-09-14T09:05:19.019Z,16.10
2018-09-14T09:07:48.436Z,16.20
2018-09-14T09:10:15.943Z,16.20
2018-09-14T09:12:44.455Z,16.20
2018-09-14T09:15:12.081Z,16.30
2018-09-14T09:17:39.967Z,16.40
2018-09-14T09:20:07.531Z,16.50
2018-09-14T09:22:35.034Z,16.50
2018-09-14T09:25:02.559Z,16.50
2018-09-14T09:27:30.610Z,16.60
2018-09-14T09:29:58.497Z,16.60
2018-09-14T09:32:26.892Z,16.70
2018-09-14T09:34:54.846Z,16.70
2018-09-14T09:37:22.377Z,16.80
2018-09-14T09:39:49.931Z,16.80
2018-09-14T09:42:17.455Z,16.90
2018-09-14T09:44:44.955Z,16.90
2018-09-14T09:47:12.620Z,16.90
2018-09-14T09:49:40.543Z,17.00
2018-09-14T09:52:08.394Z,17.00
2018-09-14T09:54:35.930Z,17.00
2018-09-14T09:57:03.449Z,16.90
2018-09-14T09:59:30.978Z,17.00
2018-09-14T10:02:04.064Z,17.00
2018-09-14T10:04:34.052Z,17.00
2018-09-14T10:07:02.269Z,17.10
2018-09-14T10:09:29.816Z,17.10
2018-09-14T10:11:57.583Z,17.20
2018-09-14T10:14:25.476Z,17.30
2018-09-14T10:16:53.009Z,17.30
2018-09-14T10:19:20.607Z,17.30
2018-09-14T10:21:48.286Z,17.40
2018-09-14T10:24:15.847Z,17.40
2018-09-14T10:26:43.939Z,17.60
2018-09-14T10:29:11.441Z,17.50
2018-09-14T10:31:39.889Z,17.60
2018-09-14T10:34:07.970Z,17.60
2018-09-14T10:36:35.675Z,17.70
2018-09-14T10:39:05.558Z,17.80
2018-09-14T10:41:33.128Z,17.90
2018-09-14T10:44:00.655Z,17.90
2018-09-14T10:46:28.245Z,18.00
2018-09-14T10:48:56.338Z,18.00
2018-09-14T10:51:23.813Z,18.20
2018-09-14T10:53:51.380Z,18.10
2018-09-14T10:56:18.961Z,18.10
2018-09-14T10:58:47.433Z,18.10
2018-09-14T11:01:15.855Z,18.00
2018-09-14T11:03:43.823Z,17.90
2018-09-14T11:06:12.152Z,17.80
2018-09-14T11:08:40.467Z,17.90
2018-09-14T11:11:08.561Z,17.80
2018-09-14T11:13:36.095Z,17.90
2018-09-14T11:16:03.663Z,17.90
2018-09-14T11:18:31.236Z,18.00
2018-09-14T11:20:58.800Z,18.00
2018-09-14T11:23:27.020Z,18.30
2018-09-14T11:25:54.553Z,18.60
2018-09-14T11:28:22.087Z,18.80
2018-09-14T11:30:50.808Z,19.00
2018-09-14T11:33:20.128Z,19.20
2018-09-14T11:35:48.327Z,19.50
2018-09-14T11:38:15.860Z,19.70
2018-09-14T11:40:43.443Z,19.80
2018-09-14T11:43:10.977Z,20.00
2018-09-14T11:45:39.487Z,20.20
2018-09-14T11:48:07.087Z,20.20
2018-09-14T11:50:35.311Z,20.30
2018-09-14T11:53:02.863Z,20.20
2018-09-14T11:55:30.385Z,20.30
2018-09-14T11:57:58.117Z,20.40
2018-09-14T12:00:26.137Z,20.50
2018-09-14T12:02:53.732Z,20.40
2018-09-14T12:05:21.336Z,20.60
2018-09-14T12:07:49.194Z,20.40
2018-09-14T12:10:17.103Z,20.30
2018-09-14T12:12:45.271Z,20.20
2018-09-14T12:15:12.890Z,20.10
2018-09-14T12:17:40.407Z,20.00
2018-09-14T12:20:08.275Z,20.00
2018-09-14T12:22:36.282Z,19.90
2018-09-14T12:25:03.903Z,20.00
2018-09-14T12:27:31.871Z,20.10
2018-09-14T12:29:59.998Z,20.20
2018-09-14T12:32:29.071Z,20.30
2018-09-14T12:34:56.919Z,20.10
2018-09-14T12:37:24.538Z,19.90
2018-09-14T12:39:52.069Z,19.90
2018-09-14T12:42:20.303Z,19.90
2018-09-14T12:44:48.169Z,19.90
2018-09-14T12:47:15.760Z,20.10
2018-09-14T12:49:44.201Z,20.20
2018-09-14T12:52:11.786Z,20.40
2018-09-14T12:54:39.447Z,20.70
2018-09-14T12:57:08.267Z,20.70
2018-09-14T12:59:36.402Z,20.70
2018-09-14T13:02:03.973Z,20.80
2018-09-14T13:04:31.536Z,20.80
2018-09-14T13:07:00.324Z,20.80
2018-09-14T13:09:27.883Z,20.70
2018-09-14T13:11:56.619Z,20.70
2018-09-14T13:14:24.180Z,20.60
2018-09-14T13:16:51.864Z,20.60
2018-09-14T13:19:20.191Z,20.60
2018-09-14T13:21:47.746Z,20.70
2018-09-14T13:24:15.793Z,20.50
2018-09-14T13:26:43.343Z,20.60
2018-09-14T13:29:10.863Z,20.60
2018-09-14T13:31:38.800Z,20.70
2018-09-14T13:34:07.067Z,20.80
2018-09-14T13:36:34.595Z,20.90
2018-09-14T13:39:02.279Z,20.90
2018-09-14T13:41:30.634Z,21.00
2018-09-14T13:43:58.167Z,21.10
2018-09-14T13:46:25.831Z,21.20
2018-09-14T13:48:54.175Z,21.20
2018-09-14T13:51:21.787Z,21.30
2018-09-14T13:53:50.024Z,21.30
2018-09-14T13:56:17.587Z,21.30
2018-09-14T13:58:45.095Z,21.30
2018-09-14T14:01:12.765Z,21.30
2018-09-14T14:03:40.249Z,21.10
2018-09-14T14:06:08.708Z,21.10
2018-09-14T14:08:37.225Z,21.00
2018-09-14T14:11:05.334Z,21.00
2018-09-14T14:13:32.871Z,20.90
2018-09-14T14:16:00.372Z,20.80
2018-09-14T14:18:28.167Z,20.80
2018-09-14T14:20:56.245Z,20.70
2018-09-14T14:23:23.794Z,20.70
2018-09-14T14:25:51.322Z,20.70
2018-09-14T14:28:18.855Z,20.60
2018-09-14T14:30:47.386Z,20.60
2018-09-14T14:33:15.647Z,20.50
2018-09-14T14:35:43.186Z,20.50
2018-09-14T14:38:11.082Z,20.40
2018-09-14T14:40:38.632Z,20.40
2018-09-14T14:43:06.486Z,20.40
2018-09-14T14:45:34.041Z,20.50
2018-09-14T14:48:01.553Z,20.30
2018-09-14T14:50:30.035Z,20.30
2018-09-14T14:52:59.103Z,20.30
2018-09-14T14:55:27.160Z,20.40
2018-09-14T14:57:55.212Z,20.30
2018-09-14T15:00:22.737Z,20.10
2018-09-14T15:02:50.852Z,20.30
2018-09-14T15:05:18.399Z,20.20
2018-09-14T15:07:46.241Z,20.20
2018-09-14T15:10:14.290Z,20.10
2018-09-14T15:12:42.315Z,19.90
2018-09-14T15:15:10.553Z,19.90
2018-09-14T15:17:38.579Z,19.90
2018-09-14T15:20:06.826Z,19.80
2018-09-14T15:22:34.394Z,19.80
2018-09-14T15:25:02.310Z,19.70
2018-09-14T15:27:30.399Z,19.70
2018-09-14T15:29:57.900Z,19.60
2018-09-14T15:32:26.203Z,19.60
2018-09-14T15:34:54.215Z,19.70
2018-09-14T15:37:22.683Z,19.60
2018-09-14T15:39:50.252Z,19.50
2018-09-14T15:42:17.855Z,19.50
2018-09-14T15:44:45.647Z,19.60
2018-09-14T15:47:13.189Z,19.50
2018-09-14T15:49:41.129Z,19.60
2018-09-14T15:52:08.720Z,19.50
2018-09-14T15:54:36.896Z,19.60
2018-09-14T15:57:04.793Z,19.60
2018-09-14T15:59:32.743Z,19.70
2018-09-14T16:02:00.265Z,19.70
2018-09-14T16:04:27.801Z,19.70
2018-09-14T16:06:56.239Z,19.70
2018-09-14T16:09:25.220Z,19.60
2018-09-14T16:11:53.232Z,19.60
2018-09-14T16:14:20.887Z,19.60
2018-09-14T16:16:49.146Z,19.60
2018-09-14T16:19:16.735Z,19.50
2018-09-14T16:21:44.349Z,19.40
2018-09-14T16:24:12.451Z,19.30
2018-09-14T16:26:42.002Z,19.10
2018-09-14T16:29:10.164Z,19.00
2018-09-14T16:31:38.355Z,18.90
2018-09-14T16:34:07.323Z,18.70
2018-09-14T16:36:35.844Z,18.60
2018-09-14T16:39:05.239Z,18.50
2018-09-14T16:41:33.152Z,18.50
2018-09-14T16:44:01.767Z,18.40
2018-09-14T16:46:30.273Z,18.40
2018-09-14T16:48:58.562Z,18.30
2018-09-14T16:51:26.257Z,18.30
2018-09-14T16:53:54.250Z,18.10
2018-09-14T16:56:22.967Z,18.10
2018-09-14T16:58:51.288Z,17.90
2018-09-14T17:01:19.941Z,17.90
2018-09-14T17:03:47.756Z,17.80
2018-09-14T17:06:15.659Z,17.80
2018-09-14T17:08:43.703Z,17.80
2018-09-14T17:11:11.732Z,17.80
2018-09-14T17:13:39.617Z,17.70
2018-09-14T17:16:07.245Z,17.70
2018-09-14T17:18:34.932Z,17.50
2018-09-14T17:21:03.548Z,17.40
2018-09-14T17:23:32.137Z,17.30
2018-09-14T17:26:00.432Z,17.30
2018-09-14T17:28:28.077Z,17.30
2018-09-14T17:30:56.722Z,17.20
2018-09-14T17:33:24.645Z,17.10
2018-09-14T17:35:52.209Z,17.00
2018-09-14T17:38:19.988Z,16.90
2018-09-14T17:40:47.512Z,16.80
2018-09-14T17:43:15.581Z,16.70
2018-09-14T17:45:43.194Z,16.70
2018-09-14T17:48:11.963Z,16.70
2018-09-14T17:50:39.831Z,16.60
2018-09-14T17:53:07.400Z,16.50
2018-09-14T17:55:35.724Z,16.40
2018-09-14T17:58:03.297Z,16.40
2018-09-14T18:00:31.461Z,16.40
2018-09-14T18:02:59.636Z,16.40
2018-09-14T18:05:27.612Z,16.30
2018-09-14T18:07:55.561Z,16.20
2018-09-14T18:10:24.171Z,16.20
2018-09-14T18:12:52.075Z,16.10
2018-09-14T18:15:20.259Z,16.10
2018-09-14T18:17:47.791Z,16.00
2018-09-14T18:20:15.533Z,15.90
2018-09-14T18:22:43.503Z,15.90
2018-09-14T18:25:11.731Z,15.80
2018-09-14T18:27:39.521Z,15.80
2018-09-14T18:30:07.641Z,15.80
2018-09-14T18:32:35.481Z,15.80
2018-09-14T18:35:03.435Z,15.70
2018-09-14T18:37:31.218Z,15.70
2018-09-14T18:39:59.267Z,15.60
2018-09-14T18:42:27.397Z,15.60
2018-09-14T18:44:55.705Z,15.60
2018-09-14T18:47:23.246Z,15.50
2018-09-14T18:49:51.075Z,15.40
2018-09-14T18:52:19.048Z,15.40
2018-09-14T18:54:46.573Z,15.30
2018-09-14T18:57:14.921Z,15.30
2018-09-14T18:59:42.447Z,15.30
2018-09-14T19:02:10.943Z,15.30
2018-09-14T19:04:38.829Z,15.20
2018-09-14T19:07:07.239Z,15.00
2018-09-14T19:09:34.783Z,15.00
2018-09-14T19:12:02.906Z,15.00
2018-09-14T19:14:30.843Z,15.10
2018-09-14T19:16:58.561Z,15.00
2018-09-14T19:19:26.181Z,15.00
2018-09-14T19:21:53.752Z,15.00
2018-09-14T19:24:21.620Z,15.00
2018-09-14T19:26:50.265Z,14.90
2018-09-14T19:29:17.860Z,14.90
2018-09-14T19:31:45.987Z,14.90
2018-09-14T19:34:14.626Z,14.90
2018-09-14T19:36:42.207Z,14.80
2018-09-14T19:39:12.128Z,14.70
2018-09-14T19:41:40.821Z,14.70
2018-09-14T19:44:08.761Z,14.70
2018-09-14T19:46:36.733Z,14.70
2018-09-14T19:49:05.012Z,14.60
2018-09-14T19:51:32.918Z,14.60
2018-09-14T19:54:00.577Z,14.60
2018-09-14T19:56:28.509Z,14.60
2018-09-14T19:58:56.173Z,14.50
2018-09-14T20:01:24.684Z,14.50
2018-09-14T20:03:53.265Z,14.50
2018-09-14T20:06:21.185Z,14.40
2018-09-14T20:08:49.082Z,14.50
2018-09-14T20:11:17.929Z,14.60
2018-09-14T20:13:45.874Z,14.60
2018-09-14T20:16:13.469Z,14.70
2018-09-14T20:18:41.638Z,14.80
2018-09-14T20:21:09.567Z,14.90
2018-09-14T20:23:40.418Z,15.00
2018-09-14T20:26:08.364Z,15.00
2018-09-14T20:28:35.912Z,15.10
2018-09-14T20:31:05.529Z,15.10
2018-09-14T20:33:34.274Z,15.10
2018-09-14T20:36:02.426Z,15.20
2018-09-14T20:38:29.985Z,15.20
2018-09-14T20:40:58.071Z,15.20
2018-09-14T20:43:25.634Z,15.20
2018-09-14T20:45:53.792Z,15.20
2018-09-14T20:48:22.007Z,15.10
2018-09-14T20:50:49.945Z,15.10
2018-09-14T20:53:17.635Z,15.00
2018-09-14T20:55:46.449Z,15.10
2018-09-14T20:58:14.060Z,15.20
2018-09-14T21:00:41.923Z,15.20
2018-09-14T21:03:09.492Z,15.30
2018-09-14T21:05:37.041Z,15.30
2018-09-14T21:08:05.339Z,15.30
2018-09-14T21:10:32.943Z,15.40
2018-09-14T21:13:01.354Z,15.40
2018-09-14T21:15:28.963Z,15.40
2018-09-14T21:17:56.526Z,15.40
2018-09-14T21:20:24.146Z,15.40
2018-09-14T21:22:52.672Z,15.40
2018-09-14T21:25:20.807Z,15.30
2018-09-14T21:27:48.460Z,15.40
2018-09-14T21:30:16.375Z,15.40
2018-09-14T21:32:44.364Z,15.40
2018-09-14T21:35:12.192Z,15.30
2018-09-14T21:37:39.708Z,15.30
2018-09-14T21:40:07.244Z,15.20
2018-09-14T21:42:34.785Z,15.20
2018-09-14T21:45:02.688Z,15.10
2018-09-14T21:47:30.819Z,15.10
2018-09-14T21:49:58.678Z,15.10
2018-09-14T21:52:26.254Z,15.10
2018-09-14T21:54:53.980Z,15.10
2018-09-14T21:57:22.266Z,15.10
2018-09-14T21:59:49.903Z,15.10
2018-09-14T22:02:17.465Z,15.10
2018-09-14T22:04:45.158Z,15.10
2018-09-14T22:07:13.746Z,15.00
2018-09-14T22:09:41.311Z,15.00
2018-09-14T22:12:09.424Z,15.00
2018-09-14T22:14:37.820Z,15.00
2018-09-14T22:17:05.370Z,14.90
2018-09-14T22:19:33.232Z,14.80
2018-09-14T22:22:01.366Z,14.80
2018-09-14T22:24:29.391Z,14.70
2018-09-14T22:26:56.921Z,14.80
2018-09-14T22:29:24.495Z,14.70
2018-09-14T22:31:53.817Z,14.60
2018-09-14T22:34:22.634Z,14.60
2018-09-14T22:36:50.155Z,14.50
2018-09-14T22:39:18.154Z,14.40
2018-09-14T22:41:45.767Z,14.30
2018-09-14T22:44:13.709Z,14.30
2018-09-14T22:46:41.304Z,14.30
2018-09-14T22:49:09.367Z,14.30
2018-09-14T22:51:37.435Z,14.30
2018-09-14T22:54:04.983Z,14.30
2018-09-14T22:56:32.859Z,14.30
2018-09-14T22:59:00.367Z,14.30
2018-09-14T23:01:27.968Z,14.20
2018-09-14T23:03:55.543Z,14.20
2018-09-14T23:06:23.055Z,14.20
2018-09-14T23:08:51.001Z,14.20
2018-09-14T23:11:18.825Z,14.20
2018-09-14T23:13:46.705Z,14.20
2018-09-14T23:16:14.308Z,14.20
2018-09-14T23:18:42.128Z,14.20
2018-09-14T23:21:09.668Z,14.10
2018-09-14T23:23:37.720Z,14.10
2018-09-14T23:26:08.635Z,14.00
2018-09-14T23:28:36.130Z,14.10
2018-09-14T23:31:04.585Z,14.10
2018-09-14T23:33:32.489Z,14.10
2018-09-14T23:35:59.984Z,14.10
2018-09-14T23:38:27.528Z,14.10
2018-09-14T23:40:55.483Z,14.10
2018-09-14T23:43:23.007Z,14.00
2018-09-14T23:45:51.042Z,14.00
2018-09-14T23:48:18.547Z,13.90
2018-09-14T23:50:46.496Z,13.90
2018-09-14T23:53:14.526Z,13.90
2018-09-14T23:55:42.583Z,13.90
2018-09-14T23:58:10.089Z,13.70
